Time;durP1;ratioP1;P1;durP2;ratioP2;P2;SDS_P1;SDS_P2;PMS_P1;PMS_P2;Temp;Humidity;BMP_temperature;BMP_pressure;BME280_temperature;BME280_humidity;BME280_pressure;Samples;Min_cycle;Max_cycle;Signal;HPM_P1;HPM_P2
2023/11/05 00:02:19;;;;;;;;;;;;;;;;;;4956576;29;19973;-81
2023/11/05 00:04:47;;;;;;;;;;;;;;;;;;4958855;29;20045;-80
2023/11/05 00:07:26;;;;;;;;;;;;;;;;;;4957003;29;19914;-81
2023/11/05 00:09:52;;;;;;;;;;;;;;;;;;4956775;28;19945;-79
2023/11/05 00:12:18;;;;;;;;;;;;;;;;;;4957798;29;20357;-80
2023/11/05 00:14:44;;;;;;;;;;;;;;;;;;4957933;29;19941;-80
2023/11/05 00:17:10;;;;;;;;;;;;;;;;;;4957048;29;19922;-78
2023/11/05 00:19:37;;;;;;;;;;;;;;;;;;4956215;28;19926;-79
2023/11/05 00:22:13;;;;;;;;;;;;;;;;;;4956651;29;19918;-79
2023/11/05 00:24:38;;;;;;;;;;;;;;;;;;4958496;28;19923;-79
2023/11/05 00:27:04;;;;;;;;;;;;;;;;;;4956483;29;19950;-79
2023/11/05 00:29:36;;;;;;;;;;;;;;;;;;4940850;29;20427;-80
2023/11/05 00:32:11;;;;;;;;;;;;;;;;;;4955615;29;19914;-81
2023/11/05 00:34:39;;;;;;;;;;;;;;;;;;4939816;29;19914;-80
2023/11/05 00:37:05;;;;;;;;;;;;;;;;;;4939716;29;20341;-80
2023/11/05 00:39:31;;;;;;;;;;;;;;;;;;4957206;28;20009;-80
2023/11/05 00:41:58;;;;;;;;;;;;;;;;;;4955569;29;19946;-80
2023/11/05 00:44:24;;;;;;;;;;;;;;;;;;4955867;29;19929;-80
2023/11/05 00:46:50;;;;;;;;;;;;;;;;;;4955264;29;20015;-80
2023/11/05 00:49:43;;;;;;;;;;;;;;;;;;4956335;28;19914;-81
2023/11/05 00:52:09;;;;;;;;;;;;;;;;;;4955679;29;19942;-80
2023/11/05 00:54:34;;;;;;;;;;;;;;;;;;4957172;29;19915;-81
2023/11/05 00:57:02;;;;;;;;;;;;;;;;;;4940345;29;19914;-80
2023/11/05 00:59:31;;;;;;;;;;;;;;;;;;4957053;28;19914;-80
2023/11/05 01:01:58;;;;;;;;;;;;;;;;;;4923842;29;19922;-81
2023/11/05 01:04:24;;;;;;;;;;;;;;;;;;4955894;29;19969;-81
2023/11/05 01:06:52;;;;;;;;;;;;;;;;;;4955510;29;19921;-80
2023/11/05 01:09:18;;;;;;;;;;;;;;;;;;4939571;29;19957;-81
2023/11/05 01:11:46;;;;;;;;;;;;;;;;;;4956692;28;19919;-81
2023/11/05 01:14:14;;;;;;;;;;;;;;;;;;4958437;29;20013;-81
2023/11/05 01:16:40;;;;;;;;;;;;;;;;;;4956736;29;19968;-80
2023/11/05 01:19:05;;;;;;;;;;;;;;;;;;4938363;29;19918;-81
2023/11/05 01:21:31;;;;;;;;;;;;;;;;;;4954911;29;20513;-82
2023/11/05 01:23:58;;;;;;;;;;;;;;;;;;4956475;28;19915;-81
2023/11/05 01:26:27;;;;;;;;;;;;;;;;;;4939577;29;19924;-81
2023/11/05 01:28:53;;;;;;;;;;;;;;;;;;4922792;29;19919;-80
2023/11/05 01:31:24;;;;;;;;;;;;;;;;;;4939236;29;19914;-81
2023/11/05 01:33:49;;;;;;;;;;;;;;;;;;4954944;29;19914;-81
2023/11/05 01:36:17;;;;;;;;;;;;;;;;;;4956309;28;19961;-81
2023/11/05 01:38:45;;;;;;;;;;;;;;;;;;4939362;28;20049;-81
2023/11/05 01:41:11;;;;;;;;;;;;;;;;;;4956662;29;20408;-81
2023/11/05 01:43:36;;;;;;;;;;;;;;;;;;4955381;29;20078;-80
2023/11/05 01:46:02;;;;;;;;;;;;;;;;;;4955018;29;20005;-79
2023/11/05 01:48:29;;;;;;;;;;;;;;;;;;4956930;28;19941;-80
2023/11/05 01:50:55;;;;;;;;;;;;;;;;;;4942169;29;19960;-81
2023/11/05 01:53:21;;;;;;;;;;;;;;;;;;4961785;29;19918;-80
2023/11/05 01:55:47;;;;;;;;;;;;;;;;;;4945642;29;20437;-81
2023/11/05 01:58:12;;;;;;;;;;;;;;;;;;4960865;29;19915;-80
2023/11/05 02:00:38;;;;;;;;;;;;;;;;;;4958697;28;20385;-81
2023/11/05 02:03:03;;;;;;;;;;;;;;;;;;4939846;29;20394;-81
2023/11/05 02:05:31;;;;;;;;;;;;;;;;;;4954897;29;19921;-82
2023/11/05 02:07:57;;;;;;;;;;;;;;;;;;4956093;29;20009;-81
2023/11/05 02:10:22;;;;;;;;;;;;;;;;;;4939171;29;20390;-81
2023/11/05 02:12:47;;;;;;;;;;;;;;;;;;4923126;29;19914;-81
2023/11/05 02:15:13;;;;;;;;;;;;;;;;;;4940019;29;20394;-80
2023/11/05 02:17:39;;;;;;;;;;;;;;;;;;4957429;28;19922;-80
2023/11/05 02:20:06;;;;;;;;;;;;;;;;;;4958386;28;19923;-80
2023/11/05 02:22:33;;;;;;;;;;;;;;;;;;4959915;29;19961;-79
2023/11/05 02:25:01;;;;;;;;;;;;;;;;;;4946174;29;20127;-80
2023/11/05 02:27:30;;;;;;;;;;;;;;;;;;4953118;29;19923;-81
2023/11/05 02:29:55;;;;;;;;;;;;;;;;;;4969738;28;19918;-80
2023/11/05 02:32:21;;;;;;;;;;;;;;;;;;4956309;29;19970;-81
2023/11/05 02:34:46;;;;;;;;;;;;;;;;;;4974300;28;19922;-80
2023/11/05 02:37:12;;;;;;;;;;;;;;;;;;4971501;29;19950;-80
2023/11/05 02:39:38;;;;;;;;;;;;;;;;;;4961998;28;19919;-82
2023/11/05 02:42:04;;;;;;;;;;;;;;;;;;4959553;29;19915;-80
2023/11/05 02:44:29;;;;;;;;;;;;;;;;;;4938849;29;19929;-81
2023/11/05 02:46:55;;;;;;;;;;;;;;;;;;4938627;29;19970;-79
2023/11/05 02:49:21;;;;;;;;;;;;;;;;;;4955334;28;19918;-79
2023/11/05 02:51:46;;;;;;;;;;;;;;;;;;4938372;29;20349;-80
2023/11/05 02:54:12;;;;;;;;;;;;;;;;;;4954439;29;20311;-80
2023/11/05 02:56:37;;;;;;;;;;;;;;;;;;4938031;29;20341;-79
2023/11/05 02:59:03;;;;;;;;;;;;;;;;;;4937519;29;20016;-80
2023/11/05 03:01:29;;;;;;;;;;;;;;;;;;4954578;29;20306;-79
2023/11/05 03:03:57;;;;;;;;;;;;;;;;;;4937803;29;19914;-81
2023/11/05 03:06:24;;;;;;;;;;;;;;;;;;4937631;29;20436;-81
2023/11/05 03:08:50;;;;;;;;;;;;;;;;;;4937543;29;20393;-81
2023/11/05 03:11:16;;;;;;;;;;;;;;;;;;4936136;29;19958;-81
2023/11/05 03:13:41;;;;;;;;;;;;;;;;;;4922824;29;20003;-81
2023/11/05 03:16:35;;;;;;;;;;;;;;;;;;4954518;29;19978;-81
2023/11/05 03:19:00;;;;;;;;;;;;;;;;;;4954743;28;19961;-79
2023/11/05 03:21:28;;;;;;;;;;;;;;;;;;4954655;29;20393;-81
2023/11/05 03:23:54;;;;;;;;;;;;;;;;;;4957238;28;19922;-81
2023/11/05 03:26:22;;;;;;;;;;;;;;;;;;4959265;29;19922;-82
2023/11/05 03:28:49;;;;;;;;;;;;;;;;;;4927425;29;19920;-81
2023/11/05 03:31:15;;;;;;;;;;;;;;;;;;4959523;29;19910;-81
2023/11/05 03:33:40;;;;;;;;;;;;;;;;;;4958169;29;19914;-82
2023/11/05 03:36:06;;;;;;;;;;;;;;;;;;4959883;28;19915;-81
2023/11/05 03:38:31;;;;;;;;;;;;;;;;;;4956733;28;20404;-81
2023/11/05 03:40:57;;;;;;;;;;;;;;;;;;4924951;29;19918;-80
2023/11/05 03:43:23;;;;;;;;;;;;;;;;;;4956693;29;20374;-81
2023/11/05 03:45:48;;;;;;;;;;;;;;;;;;4925040;29;19964;-80
2023/11/05 03:48:14;;;;;;;;;;;;;;;;;;4957273;29;19921;-80
2023/11/05 03:50:39;;;;;;;;;;;;;;;;;;4941479;29;19915;-81
2023/11/05 03:53:11;;;;;;;;;;;;;;;;;;4956863;29;20009;-81
2023/11/05 03:55:36;;;;;;;;;;;;;;;;;;4956778;29;20393;-81
2023/11/05 03:58:02;;;;;;;;;;;;;;;;;;4940936;29;19914;-80
2023/11/05 04:00:30;;;;;;;;;;;;;;;;;;4956186;28;20009;-80
2023/11/05 04:02:56;;;;;;;;;;;;;;;;;;4940666;29;19914;-80
2023/11/05 04:05:27;;;;;;;;;;;;;;;;;;4956766;29;20370;-81
2023/11/05 04:07:55;;;;;;;;;;;;;;;;;;4956618;29;19915;-81
2023/11/05 04:10:21;;;;;;;;;;;;;;;;;;4957491;28;19973;-81
2023/11/05 04:12:46;;;;;;;;;;;;;;;;;;4956404;29;20009;-81
2023/11/05 04:15:14;;;;;;;;;;;;;;;;;;4940588;29;19965;-82
2023/11/05 04:17:39;;;;;;;;;;;;;;;;;;4957126;29;19918;-79
2023/11/05 04:20:05;;;;;;;;;;;;;;;;;;4924719;29;19918;-79
2023/11/05 04:22:33;;;;;;;;;;;;;;;;;;4925073;29;20377;-81
2023/11/05 04:24:58;;;;;;;;;;;;;;;;;;4939673;29;19972;-79
2023/11/05 04:27:27;;;;;;;;;;;;;;;;;;4940477;29;19914;-79
2023/11/05 04:29:53;;;;;;;;;;;;;;;;;;4957596;28;19914;-80
2023/11/05 04:32:23;;;;;;;;;;;;;;;;;;4955915;29;19965;-80
2023/11/05 04:34:49;;;;;;;;;;;;;;;;;;4955465;28;19990;-80
2023/11/05 04:37:14;;;;;;;;;;;;;;;;;;4943049;29;19954;-80
2023/11/05 04:39:40;;;;;;;;;;;;;;;;;;4944278;29;19923;-80
2023/11/05 04:42:06;;;;;;;;;;;;;;;;;;4929254;29;20006;-80
2023/11/05 04:44:31;;;;;;;;;;;;;;;;;;4962804;28;19914;-81
2023/11/05 04:46:57;;;;;;;;;;;;;;;;;;4932323;29;19915;-80
2023/11/05 04:49:22;;;;;;;;;;;;;;;;;;4965913;28;20001;-80
2023/11/05 04:51:50;;;;;;;;;;;;;;;;;;4960339;29;19915;-80
2023/11/05 04:54:19;;;;;;;;;;;;;;;;;;4943080;29;19918;-79
2023/11/05 04:56:46;;;;;;;;;;;;;;;;;;4939290;29;20350;-80
2023/11/05 04:59:13;;;;;;;;;;;;;;;;;;4957731;28;20005;-79
2023/11/05 05:01:40;;;;;;;;;;;;;;;;;;4956549;29;19938;-81
2023/11/05 05:04:15;;;;;;;;;;;;;;;;;;4956402;29;19915;-81
2023/11/05 05:06:41;;;;;;;;;;;;;;;;;;4954311;29;19946;-82
2023/11/05 05:09:09;;;;;;;;;;;;;;;;;;4955135;28;19961;-81
2023/11/05 05:11:34;;;;;;;;;;;;;;;;;;4955686;28;20005;-79
2023/11/05 05:13:59;;;;;;;;;;;;;;;;;;4937708;29;19965;-80
2023/11/05 05:16:28;;;;;;;;;;;;;;;;;;4922110;29;19914;-79
2023/11/05 05:18:54;;;;;;;;;;;;;;;;;;4786498;28;4869282;-79
2023/11/05 05:21:19;;;;;;;;;;;;;;;;;;4954780;29;20013;-79
2023/11/05 05:23:49;;;;;;;;;;;;;;;;;;4956357;28;19930;-81
2023/11/05 05:26:18;;;;;;;;;;;;;;;;;;4955164;29;19934;-80
2023/11/05 05:28:43;;;;;;;;;;;;;;;;;;4956376;28;19919;-80
2023/11/05 05:31:12;;;;;;;;;;;;;;;;;;4970818;28;19932;-80
2023/11/05 05:33:37;;;;;;;;;;;;;;;;;;4978535;28;19917;-80
2023/11/05 05:36:03;;;;;;;;;;;;;;;;;;4976836;28;19903;-80
2023/11/05 05:38:28;;;;;;;;;;;;;;;;;;4962349;28;20029;-80
2023/11/05 05:40:53;;;;;;;;;;;;;;;;;;4978609;28;19921;-80
2023/11/05 05:43:19;;;;;;;;;;;;;;;;;;4976836;28;19918;-79
2023/11/05 05:45:47;;;;;;;;;;;;;;;;;;4952618;29;19919;-79
2023/11/05 05:48:16;;;;;;;;;;;;;;;;;;4937620;29;19922;-81
2023/11/05 05:50:41;;;;;;;;;;;;;;;;;;4954158;28;19915;-80
2023/11/05 05:53:32;;;;;;;;;;;;;;;;;;4954080;29;20444;-80
2023/11/05 05:55:58;;;;;;;;;;;;;;;;;;4953942;29;20304;-81
2023/11/05 05:58:23;;;;;;;;;;;;;;;;;;4937836;28;19965;-81
2023/11/05 06:00:49;;;;;;;;;;;;;;;;;;4953793;29;19922;-81
2023/11/05 06:03:15;;;;;;;;;;;;;;;;;;4953448;29;20123;-79
2023/11/05 06:05:41;;;;;;;;;;;;;;;;;;4953396;29;20001;-80
2023/11/05 06:08:09;;;;;;;;;;;;;;;;;;4953543;29;19953;-81
2023/11/05 06:10:35;;;;;;;;;;;;;;;;;;4937086;29;19915;-81
2023/11/05 06:13:02;;;;;;;;;;;;;;;;;;4952794;29;19929;-79
2023/11/05 06:15:28;;;;;;;;;;;;;;;;;;4953683;29;19918;-79
2023/11/05 06:17:55;;;;;;;;;;;;;;;;;;4937280;29;20010;-79
2023/11/05 06:20:24;;;;;;;;;;;;;;;;;;4953171;28;19918;-81
2023/11/05 06:22:53;;;;;;;;;;;;;;;;;;4937612;29;19937;-81
2023/11/05 06:25:18;;;;;;;;;;;;;;;;;;4954571;29;19961;-81
2023/11/05 06:27:44;;;;;;;;;;;;;;;;;;4921849;29;19919;-81
2023/11/05 06:30:09;;;;;;;;;;;;;;;;;;4937846;29;19923;-79
2023/11/05 06:32:35;;;;;;;;;;;;;;;;;;4955412;28;19914;-81
2023/11/05 06:35:00;;;;;;;;;;;;;;;;;;4954417;29;19914;-81
2023/11/05 06:37:29;;;;;;;;;;;;;;;;;;4954030;28;20290;-80
2023/11/05 06:39:59;;;;;;;;;;;;;;;;;;4937698;29;19950;-79
2023/11/05 06:42:25;;;;;;;;;;;;;;;;;;4937193;29;19962;-82
2023/11/05 06:44:50;;;;;;;;;;;;;;;;;;4937290;29;19926;-79
2023/11/05 06:47:15;;;;;;;;;;;;;;;;;;4954184;29;20456;-81
2023/11/05 06:49:42;;;;;;;;;;;;;;;;;;4952578;28;19997;-80
2023/11/05 06:52:11;;;;;;;;;;;;;;;;;;4952542;29;19940;-81
2023/11/05 06:54:51;;;;;;;;;;;;;;;;;;4938876;29;19973;-81
2023/11/05 06:57:17;;;;;;;;;;;;;;;;;;4954265;29;19915;-81
2023/11/05 06:59:43;;;;;;;;;;;;;;;;;;4939847;29;19923;-80
2023/11/05 07:02:12;;;;;;;;;;;;;;;;;;4959462;28;19914;-79
2023/11/05 07:04:38;;;;;;;;;;;;;;;;;;4958246;28;20389;-80
2023/11/05 07:07:05;;;;;;;;;;;;;;;;;;4941779;29;19969;-80
2023/11/05 07:09:34;;;;;;;;;;;;;;;;;;4956427;28;19958;-80
2023/11/05 07:12:00;;;;;;;;;;;;;;;;;;4956478;29;19922;-80
2023/11/05 07:14:31;;;;;;;;;;;;;;;;;;4957634;29;20301;-81
2023/11/05 07:16:57;;;;;;;;;;;;;;;;;;4940924;29;19922;-79
2023/11/05 07:19:22;;;;;;;;;;;;;;;;;;4940305;29;20370;-79
2023/11/05 07:21:48;;;;;;;;;;;;;;;;;;4957896;28;19910;-80
2023/11/05 07:24:14;;;;;;;;;;;;;;;;;;4958071;29;20069;-79
2023/11/05 07:26:41;;;;;;;;;;;;;;;;;;4957560;29;19914;-81
2023/11/05 07:29:07;;;;;;;;;;;;;;;;;;4960878;28;20016;-79
2023/11/05 07:31:33;;;;;;;;;;;;;;;;;;4969285;29;19922;-78
2023/11/05 07:33:59;;;;;;;;;;;;;;;;;;4968278;29;19915;-81
2023/11/05 07:36:24;;;;;;;;;;;;;;;;;;4973910;29;19902;-81
2023/11/05 07:38:50;;;;;;;;;;;;;;;;;;4975002;28;20024;-81
2023/11/05 07:41:22;;;;;;;;;;;;;;;;;;4977668;29;19898;-81
2023/11/05 07:43:47;;;;;;;;;;;;;;;;;;4962633;29;19918;-81
2023/11/05 07:46:14;;;;;;;;;;;;;;;;;;4978138;29;20018;-82
2023/11/05 07:48:40;;;;;;;;;;;;;;;;;;4967250;28;19926;-81
2023/11/05 07:51:06;;;;;;;;;;;;;;;;;;4958125;29;20028;-81
2023/11/05 07:53:31;;;;;;;;;;;;;;;;;;4941424;29;19915;-80
2023/11/05 07:55:57;;;;;;;;;;;;;;;;;;4957450;29;19921;-80
2023/11/05 07:58:22;;;;;;;;;;;;;;;;;;4924807;28;19970;-80
2023/11/05 08:00:53;;;;;;;;;;;;;;;;;;4957017;29;19925;-80
2023/11/05 08:03:22;;;;;;;;;;;;;;;;;;4957581;29;19915;-81
2023/11/05 08:05:51;;;;;;;;;;;;;;;;;;4957977;29;20313;-82
2023/11/05 08:08:17;;;;;;;;;;;;;;;;;;4958191;28;19919;-80
2023/11/05 08:10:42;;;;;;;;;;;;;;;;;;4957116;28;19914;-80
2023/11/05 08:13:11;;;;;;;;;;;;;;;;;;4956898;29;19915;-79
2023/11/05 08:15:36;;;;;;;;;;;;;;;;;;4956227;29;19914;-79
2023/11/05 08:18:02;;;;;;;;;;;;;;;;;;4956518;29;19914;-80
2023/11/05 08:20:27;;;;;;;;;;;;;;;;;;4957562;28;20366;-80
2023/11/05 08:22:53;;;;;;;;;;;;;;;;;;4958204;29;19915;-81
2023/11/05 08:25:22;;;;;;;;;;;;;;;;;;4959009;29;19925;-79
2023/11/05 08:27:50;;;;;;;;;;;;;;;;;;4958971;29;20137;-80
2023/11/05 08:30:17;;;;;;;;;;;;;;;;;;4944899;29;20268;-82
2023/11/05 08:32:46;;;;;;;;;;;;;;;;;;4959276;29;19937;-79
2023/11/05 08:35:13;;;;;;;;;;;;;;;;;;4978516;29;19902;-80
2023/11/05 08:37:43;;;;;;;;;;;;;;;;;;4977835;28;19910;-81
2023/11/05 08:40:13;;;;;;;;;;;;;;;;;;4977692;28;19926;-79
2023/11/05 08:42:39;;;;;;;;;;;;;;;;;;4961723;28;19981;-80
2023/11/05 08:45:08;;;;;;;;;;;;;;;;;;4959109;29;20017;-82
2023/11/05 08:47:36;;;;;;;;;;;;;;;;;;4930718;29;19921;-79
2023/11/05 08:50:05;;;;;;;;;;;;;;;;;;4924731;29;19922;-81
2023/11/05 08:52:31;;;;;;;;;;;;;;;;;;4940148;29;19910;-81
2023/11/05 08:54:59;;;;;;;;;;;;;;;;;;4939852;29;19915;-79
2023/11/05 08:57:26;;;;;;;;;;;;;;;;;;4924928;29;20295;-79
2023/11/05 08:59:54;;;;;;;;;;;;;;;;;;4956503;28;19926;-80
2023/11/05 09:02:19;;;;;;;;;;;;;;;;;;4956380;29;19918;-80
2023/11/05 09:04:46;;;;;;;;;;;;;;;;;;4957199;28;19914;-81
2023/11/05 09:07:11;;;;;;;;;;;;;;;;;;4957438;29;19925;-81
2023/11/05 09:09:42;;;;;;;;;;;;;;;;;;4960370;28;19910;-81
2023/11/05 09:12:09;;;;;;;;;;;;;;;;;;4956817;28;19915;-80
2023/11/05 09:14:40;;;;;;;;;;;;;;;;;;4926118;29;19915;-81
2023/11/05 09:17:08;;;;;;;;;;;;;;;;;;4955592;29;19921;-79
2023/11/05 09:19:34;;;;;;;;;;;;;;;;;;4954050;28;19969;-80
2023/11/05 09:22:00;;;;;;;;;;;;;;;;;;4938268;29;19922;-81
2023/11/05 09:24:30;;;;;;;;;;;;;;;;;;4939472;29;20005;-79
2023/11/05 09:26:57;;;;;;;;;;;;;;;;;;4954007;29;20366;-81
2023/11/05 09:29:23;;;;;;;;;;;;;;;;;;4953844;28;19925;-79
2023/11/05 09:31:57;;;;;;;;;;;;;;;;;;4954068;29;19915;-80
2023/11/05 09:34:23;;;;;;;;;;;;;;;;;;4955468;29;19966;-81
2023/11/05 09:36:50;;;;;;;;;;;;;;;;;;4938346;29;19957;-81
2023/11/05 09:39:17;;;;;;;;;;;;;;;;;;4938661;29;20378;-81
2023/11/05 09:41:44;;;;;;;;;;;;;;;;;;4923245;29;19957;-81
2023/11/05 09:44:10;;;;;;;;;;;;;;;;;;4956625;28;19914;-80
2023/11/05 09:46:39;;;;;;;;;;;;;;;;;;4955013;29;20255;-81
2023/11/05 09:49:04;;;;;;;;;;;;;;;;;;4954618;28;20405;-81
2023/11/05 09:51:30;;;;;;;;;;;;;;;;;;4956127;28;20009;-82
2023/11/05 09:53:57;;;;;;;;;;;;;;;;;;4939413;29;19997;-81
2023/11/05 09:56:29;;;;;;;;;;;;;;;;;;4938459;29;19914;-81
2023/11/05 09:58:56;;;;;;;;;;;;;;;;;;4938821;29;19915;-81
2023/11/05 10:01:22;;;;;;;;;;;;;;;;;;4955365;29;19914;-81
2023/11/05 10:03:48;;;;;;;;;;;;;;;;;;4956444;29;20292;-79
2023/11/05 10:06:13;;;;;;;;;;;;;;;;;;4925781;29;19918;-81
2023/11/05 10:08:43;;;;;;;;;;;;;;;;;;4956655;28;19915;-81
2023/11/05 10:11:10;;;;;;;;;;;;;;;;;;4928620;29;20001;-81
2023/11/05 10:13:35;;;;;;;;;;;;;;;;;;4945845;29;19910;-81
2023/11/05 10:16:09;;;;;;;;;;;;;;;;;;4946128;29;19969;-80
2023/11/05 10:18:42;;;;;;;;;;;;;;;;;;4961024;28;19918;-80
2023/11/05 10:21:10;;;;;;;;;;;;;;;;;;4940140;29;19919;-81
2023/11/05 10:23:37;;;;;;;;;;;;;;;;;;4956945;29;19962;-82
2023/11/05 10:26:21;;;;;;;;;;;;;;;;;;4959881;29;19942;-82
2023/11/05 10:28:54;;;;;;;;;;;;;;;;;;4964963;28;19921;-82
2023/11/05 10:31:24;;;;;;;;;;;;;;;;;;4961580;29;19915;-81
2023/11/05 10:33:49;;;;;;;;;;;;;;;;;;4933296;29;19948;-81
2023/11/05 10:36:16;;;;;;;;;;;;;;;;;;4960160;29;19926;-82
2023/11/05 10:38:42;;;;;;;;;;;;;;;;;;4927734;28;19937;-81
2023/11/05 10:41:09;;;;;;;;;;;;;;;;;;4959164;29;20385;-81
2023/11/05 10:43:35;;;;;;;;;;;;;;;;;;4942106;29;19925;-81
2023/11/05 10:46:08;;;;;;;;;;;;;;;;;;4959568;29;19934;-80
2023/11/05 10:48:34;;;;;;;;;;;;;;;;;;4942819;28;19914;-82
2023/11/05 10:51:06;;;;;;;;;;;;;;;;;;4943667;29;19910;-80
2023/11/05 10:53:33;;;;;;;;;;;;;;;;;;4942352;29;20024;-82
2023/11/05 10:55:58;;;;;;;;;;;;;;;;;;4942740;29;19914;-80
2023/11/05 10:58:26;;;;;;;;;;;;;;;;;;4941364;28;19956;-81
2023/11/05 11:00:54;;;;;;;;;;;;;;;;;;4957107;29;19925;-81
2023/11/05 11:03:25;;;;;;;;;;;;;;;;;;4925980;29;20350;-82
2023/11/05 11:05:52;;;;;;;;;;;;;;;;;;4956940;29;19942;-81
2023/11/05 11:08:18;;;;;;;;;;;;;;;;;;4924313;29;19919;-80
2023/11/05 11:10:44;;;;;;;;;;;;;;;;;;4940641;29;19915;-82
2023/11/05 11:13:10;;;;;;;;;;;;;;;;;;4956427;29;19922;-81
2023/11/05 11:15:35;;;;;;;;;;;;;;;;;;4925159;29;19914;-82
2023/11/05 11:18:02;;;;;;;;;;;;;;;;;;4957028;29;19918;-82
2023/11/05 11:20:31;;;;;;;;;;;;;;;;;;4940535;29;19918;-81
2023/11/05 11:22:57;;;;;;;;;;;;;;;;;;4958477;29;19977;-81
2023/11/05 11:25:22;;;;;;;;;;;;;;;;;;4926071;29;20009;-80
2023/11/05 11:27:48;;;;;;;;;;;;;;;;;;4944004;29;19974;-82
2023/11/05 11:30:14;;;;;;;;;;;;;;;;;;4963757;28;19930;-81
2023/11/05 11:32:39;;;;;;;;;;;;;;;;;;4961572;29;19915;-81
2023/11/05 11:35:05;;;;;;;;;;;;;;;;;;4959676;28;19919;-82
2023/11/05 11:37:30;;;;;;;;;;;;;;;;;;4963028;28;19902;-82
2023/11/05 11:39:59;;;;;;;;;;;;;;;;;;4959077;29;19922;-82
2023/11/05 11:42:30;;;;;;;;;;;;;;;;;;4962678;29;19925;-81
2023/11/05 11:44:56;;;;;;;;;;;;;;;;;;4957501;29;20282;-82
2023/11/05 11:47:23;;;;;;;;;;;;;;;;;;4963703;28;20001;-82
2023/11/05 11:49:49;;;;;;;;;;;;;;;;;;4941792;29;19910;-82
2023/11/05 11:52:15;;;;;;;;;;;;;;;;;;4957506;29;20353;-81
2023/11/05 11:54:45;;;;;;;;;;;;;;;;;;4941281;29;19914;-82
2023/11/05 11:57:15;;;;;;;;;;;;;;;;;;4926831;29;20289;-82
2023/11/05 14:23:56;;;;;;;;;;;;;;;;;;5913076;23;19926;-84
2023/11/05 14:26:42;;;;;;;;;;;;;;;;;;4997438;28;19921;-86
2023/11/05 14:29:22;;;;;;;;;;;;;;;;;;4982025;28;19945;-85
2023/11/05 14:32:33;;;;;;;;;;;;;;;;;;4997069;28;20034;-84
2023/11/05 14:35:05;;;;;;;;;;;;;;;;;;4979791;28;19974;-83
2023/11/05 14:37:46;;;;;;;;;;;;;;;;;;4981312;28;19925;-83
2023/11/05 14:40:24;;;;;;;;;;;;;;;;;;4981113;28;19922;-84
2023/11/05 14:43:02;;;;;;;;;;;;;;;;;;4979575;28;19925;-83
2023/11/05 14:45:47;;;;;;;;;;;;;;;;;;4979683;28;19973;-84
2023/11/05 14:48:27;;;;;;;;;;;;;;;;;;5011031;28;19898;-83
2023/11/05 15:38:25;;;;;;;;;;;;;;;;;;5880899;23;19918;-83
2023/11/05 15:40:51;;;;;;;;;;;;;;;;;;4983208;28;19910;-83
2023/11/05 15:43:17;;;;;;;;;;;;;;;;;;4964199;28;19921;-83
2023/11/05 15:45:51;;;;;;;;;;;;;;;;;;4976578;28;20328;-84
2023/11/05 15:48:25;;;;;;;;;;;;;;;;;;4977864;28;19978;-83
2023/11/05 15:50:54;;;;;;;;;;;;;;;;;;4975394;28;19950;-83
2023/11/05 15:53:21;;;;;;;;;;;;;;;;;;4959278;29;19957;-84
2023/11/05 15:55:48;;;;;;;;;;;;;;;;;;4957946;28;19906;-82
2023/11/05 15:58:17;;;;;;;;;;;;;;;;;;4955865;29;19914;-83
2023/11/05 16:00:48;;;;;;;;;;;;;;;;;;4956136;29;19914;-83
2023/11/05 16:03:19;;;;;;;;;;;;;;;;;;4958260;29;19921;-83
2023/11/05 16:06:03;;;;;;;;;;;;;;;;;;4970771;28;19914;-83
2023/11/05 16:08:31;;;;;;;;;;;;;;;;;;4958347;29;19986;-84
2023/11/05 16:11:00;;;;;;;;;;;;;;;;;;4957970;28;19946;-83
2023/11/05 16:29:58;;;;;;;;;;;;;;;;;;5998659;23;20136;-84
2023/11/05 16:32:38;;;;;;;;;;;;;;;;;;5011172;28;19922;-83
2023/11/05 16:35:13;;;;;;;;;;;;;;;;;;4998223;28;19937;-83
2023/11/05 16:38:41;;;;;;;;;;;;;;;;;;4998840;28;19914;-83
2023/11/05 16:48:13;;;;;;;;;;;;;;;;;;4996588;28;19974;-83
2023/11/05 16:51:51;;;;;;;;;;;;;;;;;;4977958;28;19918;-82
2023/11/05 17:22:06;;;;;;;;;;;;;;;;;;5569602;23;19945;-84
2023/11/05 20:03:13;;;;;;;;;;;;;;;;;;5648552;23;19948;-84
2023/11/05 22:05:31;;;;;;;;;;;;;;;;;;5780405;23;19917;-83
2023/11/05 22:32:51;;;;;;;;;;;;;;;;;;5322860;23;19930;-81
2023/11/05 22:35:29;;;;;;;;;;;;;;;;;;4980641;28;19914;-82
2023/11/05 22:37:59;;;;;;;;;;;;;;;;;;4978511;28;19902;-83
2023/11/05 22:40:30;;;;;;;;;;;;;;;;;;4963998;28;19921;-82
2023/11/05 22:43:22;;;;;;;;;;;;;;;;;;4958169;28;19937;-83
2023/11/05 22:45:54;;;;;;;;;;;;;;;;;;4942843;28;19923;-84
2023/11/05 22:48:27;;;;;;;;;;;;;;;;;;4942622;29;19929;-83
2023/11/05 22:50:59;;;;;;;;;;;;;;;;;;4927793;29;19903;-83
2023/11/05 22:53:25;;;;;;;;;;;;;;;;;;4941967;29;19942;-83
2023/11/05 22:56:04;;;;;;;;;;;;;;;;;;4975729;29;19911;-84
2023/11/05 22:58:59;;;;;;;;;;;;;;;;;;4987696;28;19989;-83
2023/11/05 23:04:19;;;;;;;;;;;;;;;;;;4917916;29;19927;-81
2023/11/05 23:06:51;;;;;;;;;;;;;;;;;;4923031;29;19926;-83
2023/11/05 23:09:19;;;;;;;;;;;;;;;;;;4903937;29;19908;-83
2023/11/05 23:11:44;;;;;;;;;;;;;;;;;;4934547;29;20454;-82
2023/11/05 23:14:31;;;;;;;;;;;;;;;;;;4919424;29;20006;-82
2023/11/05 23:17:22;;;;;;;;;;;;;;;;;;4919907;29;20203;-83
2023/11/05 23:20:12;;;;;;;;;;;;;;;;;;4933467;29;19934;-83
2023/11/05 23:22:43;;;;;;;;;;;;;;;;;;4936092;29;19923;-83
2023/11/05 23:25:13;;;;;;;;;;;;;;;;;;4934527;29;19916;-83
2023/11/05 23:27:40;;;;;;;;;;;;;;;;;;4925507;29;19908;-83
2023/11/05 23:30:09;;;;;;;;;;;;;;;;;;4900899;29;19940;-84
2023/11/05 23:32:44;;;;;;;;;;;;;;;;;;4885870;29;19963;-84
2023/11/05 23:35:27;;;;;;;;;;;;;;;;;;4900109;29;19910;-83
2023/11/05 23:37:59;;;;;;;;;;;;;;;;;;4900904;29;19900;-83
2023/11/05 23:40:26;;;;;;;;;;;;;;;;;;4885189;29;19934;-82
2023/11/05 23:42:52;;;;;;;;;;;;;;;;;;4920164;29;19924;-82
2023/11/05 23:45:24;;;;;;;;;;;;;;;;;;4889787;29;19912;-84
2023/11/05 23:48:01;;;;;;;;;;;;;;;;;;4894187;29;19940;-83
2023/11/05 23:50:30;;;;;;;;;;;;;;;;;;4905203;29;19904;-83
2023/11/05 23:53:01;;;;;;;;;;;;;;;;;;4904611;29;19912;-82
2023/11/05 23:55:38;;;;;;;;;;;;;;;;;;4904930;29;19920;-84
2023/11/05 23:58:09;;;;;;;;;;;;;;;;;;4905823;29;19968;-82
